createdAt,value
2023-03-21T00:00:11.311Z,36.12
2023-03-21T00:01:13.957Z,36.04
2023-03-21T00:02:15.880Z,35.97
2023-03-21T00:03:18.477Z,35.54
2023-03-21T00:04:27.091Z,34.80
2023-03-21T00:05:29.643Z,36.98
2023-03-21T00:06:31.962Z,37.73
2023-03-21T00:07:33.861Z,35.61
2023-03-21T00:08:36.456Z,36.49
2023-03-21T00:09:38.996Z,36.99
2023-03-21T00:10:43.898Z,37.03
2023-03-21T00:11:45.952Z,36.41
2023-03-21T00:12:48.283Z,37.15
2023-03-21T00:13:50.291Z,37.25
2023-03-21T00:14:53.660Z,36.43
2023-03-21T00:16:20.098Z,38.19
2023-03-21T00:17:00.249Z,40.33
2023-03-21T00:18:02.452Z,38.69
2023-03-21T00:19:05.034Z,40.33
2023-03-21T00:20:09.542Z,39.18
2023-03-21T00:23:27.692Z,39.07
2023-03-21T00:24:29.761Z,40.69
2023-03-21T00:25:32.528Z,38.63
2023-03-21T00:26:34.741Z,39.76
2023-03-21T00:27:56.860Z,41.95
2023-03-21T00:28:42.775Z,39.76
2023-03-21T00:29:45.362Z,39.99
2023-03-21T00:30:47.961Z,38.83
2023-03-21T00:31:49.979Z,39.57
2023-03-21T00:32:56.425Z,37.39
2023-03-21T00:33:56.249Z,39.88
2023-03-21T00:35:13.951Z,38.38
2023-03-21T00:36:12.590Z,37.68
2023-03-21T00:37:06.584Z,36.68
2023-03-21T00:38:10.017Z,34.68
2023-03-21T00:39:12.287Z,37.83
2023-03-21T00:40:26.649Z,37.79
2023-03-21T00:41:31.708Z,38.00
2023-03-21T00:42:22.319Z,34.76
2023-03-21T00:43:25.081Z,34.59
2023-03-21T00:44:27.874Z,33.91
2023-03-21T00:45:30.005Z,32.76
2023-03-21T00:46:42.819Z,33.80
2023-03-21T00:47:36.549Z,32.94
2023-03-21T00:48:39.041Z,34.36
2023-03-21T00:49:40.932Z,34.70
2023-03-21T00:50:46.618Z,35.23
2023-03-21T00:51:48.568Z,35.91
2023-03-21T00:52:50.624Z,34.72
2023-03-21T00:53:56.040Z,36.66
2023-03-21T00:54:59.703Z,36.51
2023-03-21T00:56:01.783Z,36.09
2023-03-21T00:57:04.179Z,36.34
2023-03-21T00:58:07.393Z,35.27
2023-03-21T00:59:09.391Z,35.64
2023-03-21T01:00:14.072Z,33.83
2023-03-21T01:01:16.730Z,35.36
2023-03-21T01:02:20.205Z,36.52
2023-03-21T01:03:25.148Z,37.19
2023-03-21T01:04:26.922Z,36.99
2023-03-21T01:05:31.630Z,35.17
2023-03-21T01:06:36.921Z,37.04
2023-03-21T01:07:39.361Z,36.87
2023-03-21T01:08:58.114Z,36.79
2023-03-21T01:09:46.732Z,35.85
2023-03-21T01:10:50.689Z,35.19
2023-03-21T01:11:53.148Z,35.38
2023-03-21T01:12:56.306Z,36.29
2023-03-21T01:14:10.855Z,34.10
2023-03-21T01:15:02.543Z,35.26
2023-03-21T01:16:08.032Z,34.97
2023-03-21T01:17:10.146Z,37.46
2023-03-21T01:18:13.347Z,35.51
2023-03-21T01:19:25.640Z,33.81
2023-03-21T01:20:23.683Z,36.18
2023-03-21T01:21:27.194Z,36.31
2023-03-21T01:22:29.212Z,34.96
2023-03-21T01:23:31.361Z,37.26
2023-03-21T01:24:40.438Z,35.45
2023-03-21T01:25:40.181Z,36.67
2023-03-21T01:26:42.449Z,36.91
2023-03-21T01:27:45.241Z,39.14
2023-03-21T01:28:47.324Z,41.06
2023-03-21T01:29:49.348Z,41.17
2023-03-21T01:30:52.030Z,43.38
2023-03-21T01:31:54.046Z,43.45
2023-03-21T01:32:56.418Z,45.19
2023-03-21T01:33:59.604Z,45.18
2023-03-21T01:35:02.073Z,45.08
2023-03-21T01:36:12.774Z,41.54
2023-03-21T01:37:09.113Z,41.28
2023-03-21T01:38:11.953Z,40.37
2023-03-21T01:39:13.862Z,41.74
2023-03-21T01:40:19.542Z,41.21
2023-03-21T01:41:33.433Z,42.57
2023-03-21T01:42:29.037Z,44.13
2023-03-21T01:43:34.126Z,42.55
2023-03-21T01:44:58.329Z,43.45
2023-03-21T01:46:21.123Z,41.38
2023-03-21T01:47:24.292Z,41.46
2023-03-21T01:48:28.762Z,42.85
2023-03-21T01:49:37.213Z,41.84
2023-03-21T01:50:41.430Z,41.61
2023-03-21T01:53:06.122Z,42.95
2023-03-21T01:54:11.386Z,40.67
2023-03-21T01:55:14.524Z,39.61
2023-03-21T01:56:26.199Z,40.62
2023-03-21T01:58:35.620Z,40.34
2023-03-21T01:59:49.921Z,42.08
2023-03-21T02:00:53.109Z,43.21
2023-03-21T02:01:58.909Z,44.14
2023-03-21T02:03:13.783Z,41.85
2023-03-21T02:04:09.324Z,41.92
2023-03-21T02:05:12.834Z,44.77
2023-03-21T02:06:18.775Z,44.30
2023-03-21T02:07:29.526Z,44.33
2023-03-21T02:08:39.651Z,41.62
2023-03-21T02:09:40.680Z,42.03
2023-03-21T02:10:48.861Z,40.12
2023-03-21T02:11:51.587Z,41.43
2023-03-21T02:12:56.811Z,40.09
2023-03-21T02:14:06.134Z,40.59
2023-03-21T02:15:03.398Z,39.67
2023-03-21T02:16:18.923Z,38.42
2023-03-21T02:17:36.585Z,40.20
2023-03-21T02:18:57.771Z,39.31
2023-03-21T02:20:10.553Z,40.08
2023-03-21T02:21:39.416Z,40.39
2023-03-21T02:23:16.759Z,40.52
2023-03-21T02:25:01.223Z,37.72
2023-03-21T02:26:21.377Z,37.58
2023-03-21T02:27:25.302Z,39.36
2023-03-21T02:28:43.153Z,41.80
2023-03-21T02:30:03.473Z,41.97
2023-03-21T02:31:24.443Z,41.69
2023-03-21T02:32:53.288Z,39.58
2023-03-21T02:34:18.999Z,40.48
2023-03-21T02:35:41.530Z,39.69
2023-03-21T02:36:47.659Z,39.70
2023-03-21T02:38:00.171Z,38.80
2023-03-21T02:39:19.035Z,38.75
2023-03-21T02:40:44.821Z,40.64
2023-03-21T02:41:56.396Z,40.90
2023-03-21T02:44:21.079Z,42.44
2023-03-21T02:45:29.935Z,42.19
2023-03-21T02:51:19.207Z,42.94
2023-03-21T02:52:37.860Z,42.58
2023-03-21T02:53:35.488Z,45.95
2023-03-21T02:54:48.104Z,45.00
2023-03-21T02:55:47.034Z,42.76
2023-03-21T02:56:51.343Z,42.48
2023-03-21T02:57:56.678Z,43.70
2023-03-21T02:59:02.595Z,41.22
2023-03-21T03:00:15.812Z,41.04
2023-03-21T03:01:10.084Z,40.15
2023-03-21T03:02:12.783Z,39.81
2023-03-21T03:03:28.030Z,37.99
2023-03-21T03:04:23.953Z,38.85
2023-03-21T03:05:30.065Z,38.94
2023-03-21T03:06:39.026Z,42.17
2023-03-21T03:08:04.572Z,41.23
2023-03-21T03:09:25.086Z,41.49
2023-03-21T03:10:34.015Z,41.54
2023-03-21T03:11:38.972Z,39.43
2023-03-21T03:12:50.558Z,39.12
2023-03-21T03:15:25.807Z,38.63
2023-03-21T03:16:31.601Z,41.20
2023-03-21T03:17:55.726Z,41.27
2023-03-21T03:19:01.819Z,42.34
2023-03-21T03:20:26.866Z,42.43
2023-03-21T03:21:53.716Z,43.63
2023-03-21T03:23:09.076Z,43.97
2023-03-21T03:24:14.776Z,43.43
2023-03-21T03:25:29.800Z,45.08
2023-03-21T03:26:28.217Z,43.03
2023-03-21T03:27:37.995Z,43.23
2023-03-21T03:28:43.655Z,41.64
2023-03-21T03:29:48.292Z,42.74
2023-03-21T03:31:07.533Z,41.37
2023-03-21T03:32:00.717Z,41.49
2023-03-21T03:33:05.845Z,40.79
2023-03-21T03:34:11.631Z,39.76
2023-03-21T03:35:17.006Z,38.84
2023-03-21T03:36:31.483Z,40.45
2023-03-21T03:37:30.112Z,37.92
2023-03-21T03:38:35.697Z,39.62
2023-03-21T03:40:58.661Z,36.98
2023-03-21T03:42:21.704Z,40.77
2023-03-21T03:43:17.541Z,37.57
2023-03-21T03:44:22.013Z,37.38
2023-03-21T03:45:27.722Z,39.14
2023-03-21T03:46:34.585Z,38.48
2023-03-21T03:48:03.778Z,39.23
2023-03-21T03:50:32.983Z,42.44
2023-03-21T03:51:44.996Z,43.78
2023-03-21T03:52:57.436Z,41.21
2023-03-21T03:54:06.703Z,39.84
2023-03-21T03:55:12.538Z,41.79
2023-03-21T03:56:14.660Z,41.60
2023-03-21T03:57:17.308Z,42.65
2023-03-21T03:58:23.765Z,41.46
2023-03-21T03:59:25.253Z,38.23
2023-03-21T04:00:31.174Z,39.14
2023-03-21T04:01:34.570Z,38.02
2023-03-21T04:02:38.056Z,37.00
2023-03-21T04:03:50.774Z,37.65
2023-03-21T04:04:49.713Z,39.28
2023-03-21T04:05:51.616Z,37.27
2023-03-21T04:06:54.219Z,38.03
2023-03-21T04:07:56.119Z,36.79
2023-03-21T04:09:01.662Z,37.97
2023-03-21T04:10:04.743Z,38.11
2023-03-21T04:11:06.974Z,37.45
2023-03-21T04:12:08.845Z,37.55
2023-03-21T04:13:11.360Z,36.34
2023-03-21T04:14:13.707Z,35.89
2023-03-21T04:15:16.008Z,38.27
2023-03-21T04:16:18.669Z,39.64
2023-03-21T04:17:22.148Z,38.09
2023-03-21T04:18:24.504Z,35.94
2023-03-21T04:19:26.474Z,38.04
2023-03-21T04:20:36.675Z,37.16
2023-03-21T04:21:32.379Z,37.04
2023-03-21T04:22:34.248Z,34.85
2023-03-21T04:23:36.434Z,35.21
2023-03-21T04:24:39.052Z,33.56
2023-03-21T04:25:54.002Z,31.18
2023-03-21T04:26:44.865Z,30.23
2023-03-21T04:27:47.405Z,30.11
2023-03-21T04:28:51.312Z,31.51
2023-03-21T04:29:53.367Z,30.16
2023-03-21T04:31:03.717Z,30.28
2023-03-21T04:32:00.682Z,31.58
2023-03-21T04:33:02.870Z,31.06
2023-03-21T04:34:05.673Z,29.95
2023-03-21T04:35:09.197Z,31.49
2023-03-21T04:36:11.419Z,29.82
2023-03-21T04:37:13.370Z,29.81
2023-03-21T04:38:15.239Z,30.62
2023-03-21T04:39:17.307Z,34.66
2023-03-21T04:40:22.512Z,35.43
2023-03-21T04:41:24.613Z,34.58
2023-03-21T04:42:26.647Z,36.65
2023-03-21T04:43:28.664Z,44.46
2023-03-21T04:44:30.580Z,42.37
2023-03-21T04:45:32.607Z,37.29
2023-03-21T04:46:34.985Z,34.93
2023-03-21T04:47:38.140Z,34.45
2023-03-21T04:48:40.370Z,36.18
2023-03-21T04:49:43.067Z,36.61
2023-03-21T04:50:47.103Z,39.00
2023-03-21T04:51:49.135Z,43.99
2023-03-21T04:52:51.158Z,40.71
2023-03-21T04:53:55.397Z,37.85
2023-03-21T04:54:57.458Z,39.00
2023-03-21T04:56:01.783Z,39.21
2023-03-21T04:57:03.959Z,37.73
2023-03-21T04:58:06.065Z,37.17
2023-03-21T04:59:11.423Z,38.39
2023-03-21T05:00:14.988Z,38.95
2023-03-21T05:01:17.124Z,39.46
2023-03-21T05:02:19.070Z,38.70
2023-03-21T05:03:21.159Z,35.77
2023-03-21T05:04:24.870Z,36.33
2023-03-21T05:05:27.158Z,36.35
2023-03-21T05:06:30.880Z,37.65
2023-03-21T05:07:32.951Z,35.98
2023-03-21T05:08:36.133Z,36.98
2023-03-21T05:09:38.134Z,38.01
2023-03-21T05:10:42.480Z,38.12
2023-03-21T05:11:44.841Z,38.65
2023-03-21T05:12:46.737Z,40.09
2023-03-21T05:13:48.631Z,39.79
2023-03-21T05:14:50.953Z,39.64
2023-03-21T05:15:53.894Z,42.68
2023-03-21T05:16:56.599Z,46.72
2023-03-21T05:17:58.734Z,46.58
2023-03-21T05:19:02.913Z,46.65
2023-03-21T05:20:05.945Z,46.03
2023-03-21T05:21:08.584Z,46.85
2023-03-21T05:22:14.546Z,46.26
2023-03-21T05:23:16.502Z,46.22
2023-03-21T05:24:20.829Z,46.49
2023-03-21T05:25:22.850Z,47.15
2023-03-21T05:26:25.531Z,43.83
2023-03-21T05:27:27.453Z,45.52
2023-03-21T05:28:29.342Z,44.68
2023-03-21T05:29:32.839Z,47.13
2023-03-21T05:30:35.077Z,47.17
2023-03-21T05:31:37.234Z,45.65
2023-03-21T05:32:39.977Z,47.00
2023-03-21T05:33:43.190Z,54.91
2023-03-21T05:34:45.210Z,54.65
2023-03-21T05:35:50.134Z,48.47
2023-03-21T05:36:52.998Z,45.39
2023-03-21T05:37:55.109Z,46.09
2023-03-21T05:38:57.022Z,47.85
2023-03-21T05:39:59.031Z,45.43
2023-03-21T05:41:01.820Z,47.25
2023-03-21T05:42:06.862Z,46.82
2023-03-21T05:43:08.835Z,47.24
2023-03-21T05:44:12.813Z,45.94
2023-03-21T05:45:15.575Z,46.69
2023-03-21T05:46:18.838Z,48.94
2023-03-21T05:47:20.933Z,48.91
2023-03-21T05:48:23.011Z,48.10
2023-03-21T05:49:25.750Z,50.41
2023-03-21T05:50:27.910Z,50.67
2023-03-21T05:51:29.970Z,47.21
2023-03-21T05:52:34.369Z,46.94
2023-03-21T05:53:37.449Z,44.94
2023-03-21T05:54:39.504Z,45.74
2023-03-21T05:55:41.396Z,44.05
2023-03-21T05:56:43.763Z,45.15
2023-03-21T05:57:45.793Z,44.12
2023-03-21T05:58:47.809Z,44.26
2023-03-21T05:59:50.409Z,46.76
2023-03-21T06:00:53.143Z,45.06
2023-03-21T06:01:55.833Z,43.47
2023-03-21T06:02:57.771Z,42.76
2023-03-21T06:03:59.945Z,41.09
2023-03-21T06:05:02.003Z,40.21
2023-03-21T06:06:04.480Z,40.01
2023-03-21T06:07:07.443Z,40.02
2023-03-21T06:08:09.413Z,39.07
2023-03-21T06:09:11.819Z,39.28
2023-03-21T06:10:14.218Z,39.17
2023-03-21T06:11:25.800Z,38.29
2023-03-21T06:12:27.766Z,40.15
2023-03-21T06:13:29.657Z,38.40
2023-03-21T06:14:31.555Z,37.87
2023-03-21T06:15:34.239Z,38.80
2023-03-21T06:16:36.259Z,39.15
2023-03-21T06:17:38.355Z,36.50
2023-03-21T06:18:40.364Z,36.70
2023-03-21T06:19:42.331Z,36.91
2023-03-21T06:20:44.354Z,37.01
2023-03-21T06:21:46.679Z,35.65
2023-03-21T06:22:49.024Z,35.50
2023-03-21T06:23:50.927Z,35.85
2023-03-21T06:24:53.117Z,36.51
2023-03-21T06:25:55.002Z,34.00
2023-03-21T06:26:57.073Z,33.69
2023-03-21T06:27:59.064Z,32.81
2023-03-21T06:29:03.594Z,34.69
2023-03-21T06:30:06.970Z,33.36
2023-03-21T06:31:09.085Z,34.03
2023-03-21T06:32:12.425Z,32.58
2023-03-21T06:33:14.305Z,32.73
2023-03-21T06:34:17.465Z,32.72
2023-03-21T06:35:22.638Z,33.11
2023-03-21T06:36:24.810Z,32.70
2023-03-21T06:37:26.897Z,32.89
2023-03-21T06:38:28.804Z,34.18
2023-03-21T06:39:30.930Z,33.81
2023-03-21T06:40:33.418Z,33.05
2023-03-21T06:41:35.922Z,31.35
2023-03-21T06:42:37.832Z,33.38
2023-03-21T06:43:39.725Z,31.59
2023-03-21T06:44:41.627Z,30.75
2023-03-21T06:45:44.429Z,33.35
2023-03-21T06:46:46.571Z,31.56
2023-03-21T06:47:48.611Z,31.51
2023-03-21T06:48:50.644Z,30.29
2023-03-21T06:49:52.528Z,32.38
2023-03-21T06:50:55.175Z,31.34
2023-03-21T06:51:57.580Z,30.50
2023-03-21T06:53:00.051Z,33.83
2023-03-21T06:54:02.396Z,34.73
2023-03-21T06:55:05.566Z,33.91
2023-03-21T06:56:10.398Z,33.52
2023-03-21T06:57:12.308Z,31.97
2023-03-21T06:58:14.312Z,32.33
2023-03-21T06:59:17.156Z,30.09
2023-03-21T07:00:21.780Z,31.11
2023-03-21T07:01:23.939Z,29.86
2023-03-21T07:02:26.135Z,31.07
2023-03-21T07:03:28.624Z,31.31
2023-03-21T07:04:31.284Z,30.31
2023-03-21T07:05:36.884Z,30.15
2023-03-21T07:06:39.923Z,29.94
2023-03-21T07:07:42.134Z,29.24
2023-03-21T07:08:44.111Z,28.62
2023-03-21T07:09:45.981Z,29.88
2023-03-21T07:10:49.050Z,29.73
2023-03-21T07:11:50.953Z,30.23
2023-03-21T07:12:52.974Z,31.27
2023-03-21T07:13:54.872Z,30.91
2023-03-21T07:14:56.744Z,31.41
2023-03-21T07:16:00.223Z,31.54
2023-03-21T07:17:02.461Z,32.12
2023-03-21T07:18:05.342Z,31.05
2023-03-21T07:19:07.385Z,31.49
2023-03-21T07:20:11.365Z,32.93
2023-03-21T07:21:13.827Z,31.69
2023-03-21T07:22:15.900Z,31.03
2023-03-21T07:23:22.901Z,31.53
2023-03-21T07:24:25.951Z,31.92
2023-03-21T07:25:28.006Z,31.84
2023-03-21T07:26:30.216Z,32.10
2023-03-21T07:27:33.087Z,30.79
2023-03-21T07:28:36.157Z,30.95
2023-03-21T07:29:38.066Z,32.54
2023-03-21T07:30:40.497Z,30.93
2023-03-21T07:31:42.676Z,28.93
2023-03-21T07:32:44.965Z,29.26
2023-03-21T07:33:46.880Z,32.97
2023-03-21T07:34:48.772Z,29.27
2023-03-21T07:35:52.149Z,30.15
2023-03-21T07:36:55.573Z,30.56
2023-03-21T07:37:58.012Z,31.93
2023-03-21T07:39:00.103Z,31.16
2023-03-21T07:40:02.488Z,29.25
2023-03-21T07:41:06.717Z,31.28
2023-03-21T07:43:10.549Z,29.65
2023-03-21T07:44:12.607Z,30.91
2023-03-21T07:45:14.599Z,29.79
2023-03-21T07:46:18.490Z,29.76
2023-03-21T07:47:20.690Z,28.54
2023-03-21T07:48:22.893Z,27.91
2023-03-21T07:49:25.064Z,30.44
2023-03-21T07:50:27.944Z,28.49
2023-03-21T07:51:30.017Z,28.26
2023-03-21T07:52:32.488Z,28.83
2023-03-21T07:53:34.867Z,26.89
2023-03-21T07:54:36.751Z,26.99
2023-03-21T07:55:39.397Z,27.30
2023-03-21T07:56:41.841Z,26.94
2023-03-21T07:57:44.400Z,26.60
2023-03-21T07:58:47.705Z,25.28
2023-03-21T07:59:49.824Z,27.42
2023-03-21T08:00:52.689Z,24.54
2023-03-21T08:01:54.621Z,24.50
2023-03-21T08:02:59.024Z,23.31
2023-03-21T08:04:01.392Z,25.31
2023-03-21T08:05:04.172Z,24.09
2023-03-21T08:06:09.016Z,25.64
2023-03-21T08:07:11.590Z,24.42
2023-03-21T08:08:13.492Z,22.72
2023-03-21T08:09:15.762Z,22.75
2023-03-21T08:10:18.753Z,24.05
2023-03-21T08:11:20.651Z,23.91
2023-03-21T08:12:22.663Z,25.54
2023-03-21T08:13:24.571Z,23.33
2023-03-21T08:14:29.808Z,23.13
2023-03-21T08:15:31.837Z,23.19
2023-03-21T08:16:34.494Z,22.65
2023-03-21T08:17:36.572Z,22.51
2023-03-21T08:18:39.458Z,25.95
2023-03-21T08:19:41.372Z,22.67
2023-03-21T08:20:43.696Z,22.15
2023-03-21T08:21:46.074Z,22.32
2023-03-21T08:22:49.077Z,22.31
2023-03-21T08:23:53.479Z,21.15
2023-03-21T08:24:55.534Z,24.01
2023-03-21T08:25:57.561Z,22.91
2023-03-21T08:27:01.291Z,22.98
2023-03-21T08:28:03.840Z,22.18
2023-03-21T08:29:06.991Z,22.97
2023-03-21T08:30:11.673Z,23.96
2023-03-21T08:31:13.878Z,23.64
2023-03-21T08:32:18.630Z,21.87
2023-03-21T08:33:23.039Z,22.12
2023-03-21T08:34:25.164Z,21.34
2023-03-21T08:35:29.534Z,20.21
2023-03-21T08:36:31.931Z,20.56
2023-03-21T08:37:34.587Z,20.85
2023-03-21T08:38:36.470Z,20.28
2023-03-21T08:39:38.373Z,21.33
2023-03-21T08:40:40.692Z,20.71
2023-03-21T08:41:42.864Z,19.79
2023-03-21T08:42:45.140Z,20.19
2023-03-21T08:43:48.536Z,20.89
2023-03-21T08:44:50.509Z,21.09
2023-03-21T08:45:52.401Z,20.19
2023-03-21T08:46:55.384Z,19.39
2023-03-21T08:47:57.397Z,19.35
2023-03-21T08:48:59.530Z,18.61
2023-03-21T08:50:01.513Z,18.73
2023-03-21T08:51:03.786Z,20.81
2023-03-21T08:52:05.842Z,20.35
2023-03-21T08:53:07.773Z,21.34
2023-03-21T08:54:21.167Z,19.71
2023-03-21T08:55:23.107Z,20.27
2023-03-21T08:56:25.451Z,19.52
2023-03-21T08:57:28.169Z,19.97
2023-03-21T08:58:30.092Z,19.71
2023-03-21T08:59:32.324Z,19.45
2023-03-21T09:00:34.568Z,18.59
2023-03-21T09:01:36.634Z,20.39
2023-03-21T09:02:43.186Z,19.53
2023-03-21T09:03:45.230Z,19.07
2023-03-21T09:04:47.433Z,18.95
2023-03-21T09:05:52.473Z,18.67
2023-03-21T09:06:54.510Z,19.80
2023-03-21T09:08:48.504Z,18.69
2023-03-21T09:10:08.286Z,17.02
2023-03-21T09:10:56.450Z,16.75
2023-03-21T09:11:58.786Z,16.90
2023-03-21T09:13:00.807Z,16.97
2023-03-21T09:14:04.816Z,17.70
2023-03-21T09:15:08.859Z,17.23
2023-03-21T09:16:11.379Z,16.46
2023-03-21T09:17:13.340Z,16.90
2023-03-21T09:18:15.790Z,16.63
2023-03-21T09:19:17.794Z,16.47
2023-03-21T09:20:21.882Z,17.15
2023-03-21T09:21:25.093Z,15.96
2023-03-21T09:22:27.202Z,15.13
2023-03-21T09:23:29.224Z,15.85
2023-03-21T09:24:31.212Z,16.08
2023-03-21T09:25:33.119Z,15.69
2023-03-21T09:26:35.228Z,14.61
2023-03-21T09:27:37.429Z,14.68
2023-03-21T09:28:39.852Z,12.19
2023-03-21T09:29:41.870Z,12.74
2023-03-21T09:30:43.962Z,11.69
2023-03-21T09:31:47.169Z,12.69
2023-03-21T09:32:49.207Z,13.84
2023-03-21T09:33:54.905Z,14.70
2023-03-21T09:34:56.946Z,14.61
2023-03-21T09:35:58.972Z,13.82
2023-03-21T09:37:01.218Z,12.58
2023-03-21T09:38:03.113Z,14.54
2023-03-21T09:39:05.113Z,14.54
2023-03-21T09:41:40.150Z,15.14
2023-03-21T09:43:08.231Z,15.98
2023-03-21T09:44:28.846Z,16.71
2023-03-21T09:45:44.990Z,16.00
2023-03-21T09:47:01.818Z,15.42
2023-03-21T09:48:07.010Z,16.43
2023-03-21T09:49:24.630Z,16.04
2023-03-21T09:50:34.089Z,15.44
2023-03-21T09:51:39.911Z,15.91
2023-03-21T09:53:09.895Z,16.30
2023-03-21T09:54:36.702Z,15.17
2023-03-21T09:55:40.868Z,15.77
2023-03-21T09:56:45.722Z,16.62
2023-03-21T09:58:00.525Z,16.63
2023-03-21T09:59:04.658Z,16.22
2023-03-21T10:00:14.129Z,19.34
2023-03-21T10:01:19.109Z,17.46
2023-03-21T10:02:36.964Z,19.19
2023-03-21T10:03:39.359Z,17.71
2023-03-21T10:04:41.291Z,20.67
2023-03-21T10:05:46.170Z,19.55
2023-03-21T10:06:55.040Z,18.25
2023-03-21T10:08:09.647Z,18.22
2023-03-21T10:09:19.460Z,17.24
2023-03-21T10:10:28.789Z,19.31
2023-03-21T10:11:34.120Z,18.27
2023-03-21T10:12:36.060Z,18.96
2023-03-21T10:13:53.531Z,18.87
2023-03-21T10:14:58.202Z,18.46
2023-03-21T10:17:32.989Z,15.98
2023-03-21T10:18:37.404Z,17.49
2023-03-21T10:19:39.509Z,16.32
2023-03-21T10:20:42.135Z,15.55
2023-03-21T10:22:00.283Z,14.82
2023-03-21T10:22:54.495Z,15.95
2023-03-21T10:23:59.168Z,15.23
2023-03-21T10:25:01.212Z,15.88
2023-03-21T10:26:07.045Z,14.53
2023-03-21T10:27:11.145Z,14.66
2023-03-21T10:28:16.836Z,15.08
2023-03-21T10:29:22.696Z,14.78
2023-03-21T10:30:43.248Z,15.03
2023-03-21T10:31:46.856Z,14.80
2023-03-21T10:32:49.424Z,14.86
2023-03-21T10:33:53.675Z,14.62
2023-03-21T10:34:57.810Z,14.89
2023-03-21T10:36:03.627Z,14.66
2023-03-21T10:37:06.467Z,15.92
2023-03-21T10:38:12.150Z,15.38
2023-03-21T10:39:23.824Z,16.77
2023-03-21T10:40:26.051Z,16.41
2023-03-21T10:41:28.038Z,16.11
2023-03-21T10:42:32.148Z,16.06
2023-03-21T10:43:38.650Z,18.16
2023-03-21T10:44:44.444Z,16.61
2023-03-21T10:45:48.062Z,17.65
2023-03-21T10:47:00.306Z,18.01
2023-03-21T10:48:06.485Z,18.01
2023-03-21T10:49:08.692Z,17.90
2023-03-21T10:50:14.611Z,16.69
2023-03-21T10:51:21.337Z,17.97
2023-03-21T10:52:27.004Z,16.37
2023-03-21T10:53:33.174Z,15.88
2023-03-21T10:54:35.255Z,16.79
2023-03-21T10:55:40.320Z,16.97
2023-03-21T10:57:07.636Z,15.78
2023-03-21T10:58:16.419Z,16.70
2023-03-21T10:59:20.753Z,17.85
2023-03-21T11:00:26.571Z,17.31
2023-03-21T11:01:32.360Z,16.93
2023-03-21T11:02:37.125Z,17.16
2023-03-21T11:03:42.367Z,17.69
2023-03-21T11:04:44.794Z,17.49
2023-03-21T11:05:50.421Z,17.73
2023-03-21T11:06:56.195Z,17.68
2023-03-21T11:08:01.642Z,18.20
2023-03-21T11:09:18.276Z,18.17
2023-03-21T11:10:29.688Z,17.69
2023-03-21T11:11:40.806Z,18.62
2023-03-21T11:12:46.480Z,17.18
2023-03-21T11:14:00.855Z,16.35
2023-03-21T11:15:26.603Z,16.49
2023-03-21T11:16:44.565Z,16.32
2023-03-21T11:17:47.088Z,16.53
2023-03-21T11:18:51.156Z,15.70
2023-03-21T11:20:03.503Z,15.92
2023-03-21T11:22:10.849Z,15.05
2023-03-21T11:23:13.208Z,15.38
2023-03-21T11:24:19.171Z,16.76
2023-03-21T11:25:27.871Z,16.13
2023-03-21T11:26:34.116Z,15.59
2023-03-21T11:27:36.383Z,15.36
2023-03-21T11:28:41.156Z,15.74
2023-03-21T11:29:49.675Z,15.43
2023-03-21T11:30:58.673Z,16.69
2023-03-21T11:32:03.326Z,14.29
2023-03-21T11:33:06.356Z,14.24
2023-03-21T11:34:09.207Z,15.18
2023-03-21T11:35:19.686Z,14.83
2023-03-21T11:36:25.503Z,16.74
2023-03-21T11:37:43.163Z,15.44
2023-03-21T11:39:00.450Z,16.57
2023-03-21T11:40:21.330Z,15.75
2023-03-21T11:41:31.586Z,16.16
2023-03-21T11:42:46.207Z,14.81
2023-03-21T11:43:54.316Z,12.92
2023-03-21T11:45:15.423Z,14.07
2023-03-21T11:46:23.424Z,12.71
2023-03-21T11:47:25.646Z,12.56
2023-03-21T11:48:28.955Z,14.69
2023-03-21T11:49:33.169Z,12.92
2023-03-21T11:50:38.869Z,13.54
2023-03-21T11:51:59.947Z,12.90
2023-03-21T11:53:24.672Z,12.99
2023-03-21T11:54:47.160Z,12.90
2023-03-21T11:56:09.530Z,12.36
2023-03-21T11:57:15.511Z,12.31
2023-03-21T11:58:50.472Z,12.55
2023-03-21T12:00:05.306Z,13.64
2023-03-21T12:01:16.910Z,13.61
2023-03-21T12:02:34.907Z,12.29
2023-03-21T12:03:49.734Z,13.09
2023-03-21T12:04:56.193Z,12.39
2023-03-21T12:06:01.380Z,13.28
2023-03-21T12:07:16.270Z,13.48
2023-03-21T12:08:37.493Z,13.52
2023-03-21T12:09:58.689Z,13.06
2023-03-21T12:11:19.787Z,13.30
2023-03-21T12:12:52.761Z,15.21
2023-03-21T12:14:06.888Z,14.15
2023-03-21T12:15:31.015Z,15.30
2023-03-21T12:16:53.798Z,13.92
2023-03-21T12:18:02.590Z,13.83
2023-03-21T12:19:34.417Z,14.86
2023-03-21T12:20:43.301Z,14.49
2023-03-21T12:22:05.642Z,14.56
2023-03-21T12:23:14.489Z,14.74
2023-03-21T12:24:20.498Z,14.14
2023-03-21T12:25:26.249Z,14.25
2023-03-21T12:26:46.791Z,14.26
2023-03-21T12:28:02.908Z,16.74
2023-03-21T12:29:20.636Z,17.96
2023-03-21T12:30:35.632Z,15.07
2023-03-21T12:31:49.081Z,15.54
2023-03-21T12:33:01.212Z,14.87
2023-03-21T12:34:28.122Z,13.86
2023-03-21T12:35:58.452Z,14.09
2023-03-21T12:37:37.946Z,15.34
2023-03-21T12:38:52.939Z,14.63
2023-03-21T12:39:58.746Z,14.64
2023-03-21T12:41:04.759Z,14.62
2023-03-21T12:42:30.269Z,13.49
2023-03-21T12:43:42.032Z,13.72
2023-03-21T12:44:53.798Z,13.92
2023-03-21T12:45:59.497Z,13.08
2023-03-21T12:47:17.342Z,15.31
2023-03-21T12:48:25.812Z,14.68
2023-03-21T12:49:34.676Z,13.52
2023-03-21T12:50:39.294Z,14.93
2023-03-21T12:51:45.069Z,14.14
2023-03-21T12:52:50.751Z,13.66
2023-03-21T12:54:05.236Z,14.10
2023-03-21T12:56:38.536Z,14.79
2023-03-21T12:57:51.169Z,14.67
2023-03-21T12:58:58.061Z,14.86
2023-03-21T13:00:18.922Z,14.63
2023-03-21T13:01:22.388Z,14.01
2023-03-21T13:02:36.936Z,14.55
2023-03-21T13:03:42.071Z,14.02
2023-03-21T13:04:57.498Z,15.66
2023-03-21T13:06:05.708Z,14.09
2023-03-21T13:07:11.478Z,13.02
2023-03-21T13:08:29.135Z,12.84
2023-03-21T13:09:40.370Z,13.52
2023-03-21T13:10:45.954Z,12.51
2023-03-21T13:11:52.706Z,12.48
2023-03-21T13:13:15.295Z,13.61
2023-03-21T13:14:22.680Z,13.18
2023-03-21T13:15:42.942Z,14.04
2023-03-21T13:16:55.058Z,14.11
2023-03-21T13:18:03.768Z,13.27
2023-03-21T13:19:29.303Z,13.70
2023-03-21T13:20:53.611Z,13.42
2023-03-21T13:22:02.312Z,13.56
2023-03-21T13:23:04.493Z,13.99
2023-03-21T13:24:45.645Z,13.38
2023-03-21T13:25:50.170Z,14.42
2023-03-21T13:26:58.874Z,15.83
2023-03-21T13:28:03.487Z,13.74
2023-03-21T13:29:31.040Z,14.61
2023-03-21T13:30:33.195Z,14.08
2023-03-21T13:31:50.876Z,15.23
2023-03-21T13:32:43.860Z,13.83
2023-03-21T13:33:49.652Z,13.68
2023-03-21T13:34:58.308Z,12.78
2023-03-21T13:36:07.369Z,13.62
2023-03-21T13:37:18.233Z,14.43
2023-03-21T13:38:26.160Z,14.31
2023-03-21T13:39:29.385Z,14.14
2023-03-21T13:40:38.686Z,14.69
2023-03-21T13:41:44.296Z,14.49
2023-03-21T13:42:49.960Z,15.11
2023-03-21T13:43:54.721Z,14.66
2023-03-21T13:45:00.036Z,13.73
2023-03-21T13:46:27.369Z,15.03
2023-03-21T13:47:37.282Z,14.27
2023-03-21T13:48:56.255Z,15.03
2023-03-21T13:50:09.997Z,14.73
2023-03-21T13:51:12.178Z,13.69
2023-03-21T13:52:26.527Z,13.47
2023-03-21T13:53:41.769Z,14.81
2023-03-21T13:54:50.180Z,13.98
2023-03-21T13:56:01.690Z,14.16
2023-03-21T13:57:06.011Z,14.74
2023-03-21T13:58:23.810Z,13.78
2023-03-21T14:01:06.982Z,13.75
2023-03-21T14:02:30.802Z,14.02
2023-03-21T14:03:34.510Z,14.52
2023-03-21T14:04:42.670Z,15.19
2023-03-21T14:05:43.861Z,14.51
2023-03-21T14:06:52.649Z,14.60
2023-03-21T14:08:06.066Z,13.70
2023-03-21T14:09:04.272Z,14.47
2023-03-21T14:10:10.677Z,14.69
2023-03-21T14:11:18.619Z,13.78
2023-03-21T14:12:26.817Z,15.54
2023-03-21T14:13:29.821Z,14.27
2023-03-21T14:14:37.052Z,14.63
2023-03-21T14:15:55.849Z,14.97
2023-03-21T14:16:55.933Z,14.13
2023-03-21T14:18:03.398Z,14.67
2023-03-21T14:19:05.529Z,14.38
2023-03-21T14:20:29.637Z,14.45
2023-03-21T14:21:35.627Z,14.83
2023-03-21T14:22:40.511Z,15.51
2023-03-21T14:23:42.562Z,15.36
2023-03-21T14:25:01.538Z,15.17
2023-03-21T14:26:05.539Z,14.22
2023-03-21T14:27:08.154Z,14.34
2023-03-21T14:28:22.243Z,14.53
2023-03-21T14:29:33.339Z,14.27
2023-03-21T14:30:39.424Z,14.76
2023-03-21T14:31:45.276Z,14.12
2023-03-21T14:32:47.662Z,14.46
2023-03-21T14:33:53.034Z,14.07
2023-03-21T14:34:55.941Z,13.90
2023-03-21T14:37:12.199Z,14.10
2023-03-21T14:38:20.483Z,14.16